Time;durP1;ratioP1;P1;durP2;ratioP2;P2;SDS_P1;SDS_P2;PMS_P1;PMS_P2;Temp;Humidity;BMP_temperature;BMP_pressure;BME280_temperature;BME280_humidity;BME280_pressure;Samples;Min_cycle;Max_cycle;Signal;HPM_P1;HPM_P2
2021/07/06 00:01:24;;;;;;;15.02;11.63;;;17.40;99.90;;;;;;5096493;28;20036;-72
2021/07/06 00:03:49;;;;;;;14.85;11.35;;;17.40;99.90;;;;;;5096460;28;20036;-72
2021/07/06 00:06:15;;;;;;;14.15;11.73;;;17.40;99.90;;;;;;5095945;28;20491;-72
2021/07/06 00:08:41;;;;;;;16.73;10.88;;;17.40;99.90;;;;;;5095652;28;20051;-72
2021/07/06 00:11:07;;;;;;;16.02;11.85;;;17.40;99.90;;;;;;5096029;28;20032;-72
2021/07/06 00:13:32;;;;;;;14.27;11.60;;;17.30;99.90;;;;;;5095679;28;20070;-72
2021/07/06 00:15:58;;;;;;;14.75;12.23;;;17.30;99.90;;;;;;5096143;28;20036;-72
2021/07/06 00:18:24;;;;;;;17.60;12.00;;;17.30;99.90;;;;;;5096148;28;20085;-72
2021/07/06 00:20:50;;;;;;;12.82;11.38;;;17.30;99.90;;;;;;5095089;28;20044;-72
2021/07/06 00:23:15;;;;;;;12.85;11.48;;;17.30;99.90;;;;;;5095957;28;20085;-72
2021/07/06 00:25:41;;;;;;;13.75;12.35;;;17.30;99.90;;;;;;5095670;28;20044;-72
2021/07/06 00:28:07;;;;;;;15.77;12.18;;;17.30;99.90;;;;;;5095639;28;20046;-71
2021/07/06 00:30:33;;;;;;;15.05;12.57;;;17.30;99.90;;;;;;5095544;28;20395;-72
2021/07/06 00:32:58;;;;;;;14.32;12.45;;;17.30;99.90;;;;;;5094081;28;20036;-72
2021/07/06 00:35:24;;;;;;;17.13;13.10;;;17.20;99.90;;;;;;5095419;28;20039;-71
2021/07/06 00:37:50;;;;;;;17.13;12.75;;;17.20;99.90;;;;;;5095302;28;20036;-71
2021/07/06 00:40:17;;;;;;;17.05;12.60;;;17.30;99.90;;;;;;5094661;28;20412;-72
2021/07/06 00:42:45;;;;;;;19.15;13.50;;;17.30;99.90;;;;;;5095591;28;20089;-72
2021/07/06 00:45:13;;;;;;;17.65;13.50;;;17.30;99.90;;;;;;5095681;28;20086;-72
2021/07/06 00:47:40;;;;;;;20.38;13.88;;;17.20;99.90;;;;;;5093714;28;20047;-71
2021/07/06 00:50:12;;;;;;;17.10;13.63;;;17.20;99.90;;;;;;5094751;28;20040;-72
2021/07/06 00:52:38;;;;;;;14.50;12.93;;;17.20;99.90;;;;;;5095618;28;20460;-72
2021/07/06 00:55:05;;;;;;;17.17;13.75;;;17.20;99.90;;;;;;5095442;28;20032;-71
2021/07/06 00:57:31;;;;;;;18.10;13.35;;;17.30;99.90;;;;;;5095248;28;20035;-72
2021/07/06 00:59:59;;;;;;;18.65;13.60;;;17.20;99.90;;;;;;5094407;28;20119;-72
2021/07/06 01:02:25;;;;;;;16.65;13.90;;;17.20;99.90;;;;;;5095406;28;20071;-71
2021/07/06 01:04:52;;;;;;;19.50;15.38;;;17.20;99.90;;;;;;5094781;28;20039;-71
2021/07/06 01:07:18;;;;;;;19.60;13.30;;;17.30;99.90;;;;;;5094870;28;20032;-71
2021/07/06 01:09:44;;;;;;;20.33;14.15;;;17.30;99.90;;;;;;5094427;28;20043;-72
2021/07/06 01:12:13;;;;;;;18.48;14.77;;;17.30;99.90;;;;;;5094268;28;20039;-72
2021/07/06 01:14:39;;;;;;;15.88;13.50;;;17.20;99.90;;;;;;5094586;28;20044;-71
2021/07/06 01:17:05;;;;;;;14.73;13.18;;;17.30;99.90;;;;;;5095073;28;20114;-71
2021/07/06 01:19:31;;;;;;;16.35;13.55;;;17.30;99.90;;;;;;5094437;28;20162;-71
2021/07/06 01:22:04;;;;;;;16.00;13.68;;;17.30;99.90;;;;;;5094592;28;20043;-71
2021/07/06 01:24:30;;;;;;;;;;;17.30;99.90;;;;;;5095278;28;20460;-71
2021/07/06 01:26:56;;;;;;;15.02;13.35;;;17.30;99.90;;;;;;5094829;28;19916;-71
2021/07/06 01:29:22;;;;;;;16.35;12.77;;;17.30;99.90;;;;;;5093144;28;20440;-72
2021/07/06 01:31:49;;;;;;;14.30;12.25;;;17.20;99.90;;;;;;5094317;28;20032;-71
2021/07/06 01:34:15;;;;;;;19.85;13.73;;;17.20;99.90;;;;;;5094118;28;20111;-72
2021/07/06 01:36:41;;;;;;;15.80;12.25;;;17.20;99.90;;;;;;5094527;28;20604;-72
2021/07/06 01:39:07;;;;;;;21.23;14.45;;;17.20;99.90;;;;;;5092687;28;20039;-72
2021/07/06 01:41:38;;;;;;;18.52;13.45;;;17.20;99.90;;;;;;5093934;28;20482;-72
2021/07/06 01:44:16;;;;;;;17.35;13.30;;;17.20;99.90;;;;;;5093978;28;20040;-72
2021/07/06 01:46:42;;;;;;;15.85;14.32;;;17.10;99.90;;;;;;5094474;28;20047;-72
2021/07/06 01:49:12;;;;;;;14.35;12.85;;;17.10;99.90;;;;;;5093538;28;20040;-72
2021/07/06 01:51:38;;;;;;;17.20;14.13;;;17.10;99.90;;;;;;5094328;28;20040;-71
2021/07/06 01:54:04;;;;;;;23.95;15.93;;;17.10;99.90;;;;;;5094426;28;20036;-72
2021/07/06 01:56:29;;;;;;;20.15;14.43;;;17.10;99.90;;;;;;5094566;28;20456;-72
2021/07/06 01:58:56;;;;;;;17.20;14.20;;;17.10;99.90;;;;;;5093496;28;20051;-72
2021/07/06 02:01:22;;;;;;;15.32;13.73;;;17.10;99.90;;;;;;5093912;28;20068;-72
2021/07/06 02:03:51;;;;;;;15.95;13.85;;;17.10;99.90;;;;;;5094301;28;20039;-71
2021/07/06 02:06:16;;;;;;;15.85;13.65;;;17.20;99.90;;;;;;5094171;28;20036;-71
2021/07/06 02:08:42;;;;;;;17.67;14.27;;;17.10;99.90;;;;;;5093975;28;20043;-71
2021/07/06 02:11:08;;;;;;;16.42;12.10;;;17.20;99.90;;;;;;5093802;28;20036;-71
2021/07/06 02:13:34;;;;;;;16.98;12.80;;;17.10;99.90;;;;;;5093777;28;20062;-71
2021/07/06 02:16:00;;;;;;;17.42;13.32;;;17.20;99.90;;;;;;5093587;28;20111;-71
2021/07/06 02:18:27;;;;;;;15.40;13.50;;;17.20;99.90;;;;;;5093581;28;20036;-72
2021/07/06 02:20:56;;;;;;;17.95;13.40;;;17.10;99.90;;;;;;5093567;28;20040;-71
2021/07/06 02:23:23;;;;;;;17.00;12.77;;;17.10;99.90;;;;;;5092159;28;20043;-71
2021/07/06 02:25:50;;;;;;;14.57;12.05;;;17.10;99.90;;;;;;5093431;28;20047;-71
2021/07/06 02:28:16;;;;;;;13.90;11.30;;;17.20;99.90;;;;;;5093518;28;20067;-71
2021/07/06 02:30:42;;;;;;;13.60;12.10;;;17.20;99.90;;;;;;5093421;28;20122;-71
2021/07/06 02:33:07;;;;;;;17.20;12.35;;;17.20;99.90;;;;;;5094232;28;20036;-71
2021/07/06 02:35:34;;;;;;;12.82;11.52;;;17.20;99.90;;;;;;5093418;28;20044;-71
2021/07/06 02:38:01;;;;;;;13.98;11.35;;;17.20;99.90;;;;;;5093685;28;20036;-71
2021/07/06 02:40:28;;;;;;;17.10;11.48;;;17.20;99.90;;;;;;5093168;28;20041;-71
2021/07/06 02:42:55;;;;;;;14.63;11.15;;;17.10;99.90;;;;;;5097645;28;20043;-71
2021/07/06 02:45:21;;;;;;;13.70;11.55;;;17.10;99.90;;;;;;5097964;28;20036;-71
2021/07/06 02:47:48;;;;;;;13.98;10.88;;;17.10;99.90;;;;;;5097718;28;20040;-71
2021/07/06 02:50:15;;;;;;;13.07;10.57;;;17.10;99.90;;;;;;5097048;28;20044;-71
2021/07/06 02:52:41;;;;;;;12.02;9.63;;;17.20;99.90;;;;;;5097855;28;20388;-71
2021/07/06 02:55:08;;;;;;;13.63;9.98;;;17.10;99.90;;;;;;5097450;28;20118;-71
2021/07/06 02:57:35;;;;;;;11.52;10.32;;;17.10;99.90;;;;;;5097196;28;20043;-71
2021/07/06 03:00:09;;;;;;;13.00;10.27;;;17.20;99.90;;;;;;5096636;28;20036;-71
2021/07/06 03:02:39;;;;;;;12.73;9.60;;;17.10;99.90;;;;;;5098080;28;20087;-71
2021/07/06 03:05:08;;;;;;;13.43;9.90;;;17.10;99.90;;;;;;5097134;28;20036;-71
2021/07/06 03:07:35;;;;;;;12.88;10.00;;;17.20;99.90;;;;;;5096862;28;20035;-71
2021/07/06 03:10:24;;;;;;;9.95;8.95;;;17.10;99.90;;;;;;5096734;28;20040;-71
2021/07/06 03:12:50;;;;;;;14.23;9.50;;;17.20;99.90;;;;;;5096662;28;20404;-71
2021/07/06 03:15:18;;;;;;;12.73;9.40;;;17.10;99.90;;;;;;5096918;28;20032;-71
2021/07/06 03:17:46;;;;;;;12.88;9.60;;;17.10;99.90;;;;;;5096814;28;20105;-71
2021/07/06 03:20:14;;;;;;;11.05;9.75;;;17.10;99.90;;;;;;5096343;28;20723;-71
2021/07/06 03:22:40;;;;;;;10.52;9.15;;;17.20;99.90;;;;;;5096677;28;20036;-71
2021/07/06 03:25:09;;;;;;;11.10;9.10;;;17.20;99.90;;;;;;5097387;28;20044;-71
2021/07/06 03:27:36;;;;;;;11.00;9.52;;;17.20;99.90;;;;;;5096673;28;20039;-71
2021/07/06 03:30:11;;;;;;;10.43;8.98;;;17.20;99.90;;;;;;5096256;28;20048;-71
2021/07/06 03:32:37;;;;;;;12.30;9.02;;;17.10;99.90;;;;;;5096408;28;20040;-71
2021/07/06 03:35:05;;;;;;;12.60;8.75;;;17.20;99.90;;;;;;5096504;28;20373;-71
2021/07/06 03:37:31;;;;;;;13.15;8.68;;;17.10;99.90;;;;;;5096731;28;20480;-71
2021/07/06 03:39:56;;;;;;;9.27;8.05;;;17.10;99.90;;;;;;5096198;28;20102;-71
2021/07/06 03:42:22;;;;;;;9.00;8.07;;;17.10;99.90;;;;;;5096421;28;20540;-71
2021/07/06 03:44:48;;;;;;;11.75;8.63;;;17.10;99.90;;;;;;5097027;28;20043;-72
2021/07/06 03:47:13;;;;;;;12.77;8.40;;;17.10;99.90;;;;;;5096273;28;20089;-71
2021/07/06 03:49:40;;;;;;;10.55;8.15;;;17.10;99.90;;;;;;5096025;28;20046;-71
2021/07/06 03:52:05;;;;;;;7.50;6.75;;;17.20;99.90;;;;;;5095556;28;20032;-71
2021/07/06 03:54:31;;;;;;;7.72;6.90;;;17.20;99.90;;;;;;5095931;28;20040;-71
2021/07/06 03:56:57;;;;;;;8.60;6.72;;;17.30;99.90;;;;;;5096720;28;20384;-71
2021/07/06 03:59:23;;;;;;;8.30;7.47;;;17.30;99.90;;;;;;5095478;28;20040;-71
2021/07/06 04:01:49;;;;;;;10.48;7.05;;;17.30;99.90;;;;;;5096263;28;20032;-71
2021/07/06 04:04:15;;;;;;;7.63;5.90;;;17.30;99.90;;;;;;5096214;28;20135;-71
2021/07/06 04:06:41;;;;;;;8.38;6.43;;;17.30;99.90;;;;;;5095862;28;20715;-71
2021/07/06 04:09:07;;;;;;;8.02;6.57;;;17.30;99.90;;;;;;5096001;28;20067;-71
2021/07/06 04:11:32;;;;;;;9.77;6.53;;;17.40;99.90;;;;;;5095776;28;20036;-72
2021/07/06 04:13:58;;;;;;;8.40;6.72;;;17.40;99.90;;;;;;5096460;28;20067;-71
2021/07/06 04:16:24;;;;;;;7.13;6.38;;;17.50;99.90;;;;;;5095758;28;20039;-71
2021/07/06 04:18:49;;;;;;;7.65;5.55;;;17.50;99.90;;;;;;5095211;28;20040;-71
2021/07/06 04:21:15;;;;;;;7.63;5.70;;;17.60;99.90;;;;;;5094675;28;20059;-71
2021/07/06 04:23:41;;;;;;;7.93;5.50;;;17.50;99.90;;;;;;5096028;28;20036;-71
2021/07/06 04:26:08;;;;;;;8.57;6.38;;;17.50;99.90;;;;;;5095982;28;20040;-71
2021/07/06 04:28:34;;;;;;;6.68;6.00;;;17.50;99.90;;;;;;5095677;28;20440;-71
2021/07/06 04:31:01;;;;;;;6.82;5.97;;;17.60;99.90;;;;;;5095362;28;20044;-71
2021/07/06 04:33:26;;;;;;;8.93;5.75;;;17.70;99.90;;;;;;5095278;28;20036;-71
2021/07/06 04:35:52;;;;;;;7.93;5.88;;;17.70;99.90;;;;;;5095483;28;20059;-71
2021/07/06 04:38:18;;;;;;;11.43;6.22;;;17.70;99.90;;;;;;5095114;28;20063;-71
2021/07/06 04:40:44;;;;;;;8.10;5.45;;;17.80;99.90;;;;;;5094873;28;20059;-71
2021/07/06 04:43:10;;;;;;;7.40;5.22;;;17.90;99.90;;;;;;5095125;28;20039;-71
2021/07/06 04:45:36;;;;;;;10.57;5.45;;;17.90;99.90;;;;;;5094184;28;20039;-71
2021/07/06 04:48:03;;;;;;;8.30;5.55;;;17.90;99.90;;;;;;5095162;28;20044;-71
2021/07/06 04:50:31;;;;;;;9.10;5.18;;;17.90;99.90;;;;;;5094981;28;20500;-71
2021/07/06 04:52:57;;;;;;;7.25;4.55;;;18.00;99.90;;;;;;5094891;28;20085;-71
2021/07/06 04:55:22;;;;;;;7.28;5.18;;;17.90;99.90;;;;;;5095504;28;20042;-71
2021/07/06 04:57:48;;;;;;;7.93;4.78;;;17.90;99.90;;;;;;5095627;28;20036;-71
2021/07/06 05:00:16;;;;;;;6.35;4.28;;;18.00;99.90;;;;;;5094333;28;20047;-71
2021/07/06 05:02:42;;;;;;;5.38;4.57;;;17.90;99.90;;;;;;5094966;28;20050;-71
2021/07/06 05:05:09;;;;;;;9.23;5.03;;;18.00;99.90;;;;;;5094153;28;20464;-71
2021/07/06 05:07:35;;;;;;;8.43;5.00;;;18.00;99.90;;;;;;5094983;28;20040;-71
2021/07/06 05:10:07;;;;;;;5.60;4.13;;;18.10;99.90;;;;;;5094434;28;20118;-71
2021/07/06 05:12:33;;;;;;;7.60;4.38;;;18.10;99.90;;;;;;5094801;28;20032;-71
2021/07/06 05:14:58;;;;;;;4.03;3.22;;;18.10;99.90;;;;;;5076773;28;20048;-71
2021/07/06 05:17:24;;;;;;;5.10;4.15;;;18.20;99.90;;;;;;5094626;28;20032;-71
2021/07/06 05:19:50;;;;;;;4.97;3.60;;;18.30;99.90;;;;;;5094493;28;20035;-71
2021/07/06 05:22:15;;;;;;;5.20;3.35;;;18.20;99.90;;;;;;5094253;28;20549;-71
2021/07/06 05:24:42;;;;;;;3.78;3.10;;;18.30;99.90;;;;;;5094612;28;20040;-71
2021/07/06 05:27:07;;;;;;;4.00;2.92;;;18.40;99.90;;;;;;5094339;28;20036;-71
2021/07/06 05:29:33;;;;;;;5.68;3.20;;;18.50;99.90;;;;;;5094055;28;20040;-71
2021/07/06 05:31:59;;;;;;;4.40;2.90;;;18.60;99.90;;;;;;5094448;28;20036;-72
2021/07/06 05:34:25;;;;;;;3.38;2.70;;;19.10;99.90;;;;;;5094044;28;20399;-71
2021/07/06 05:36:53;;;;;;;3.22;2.03;;;19.50;99.90;;;;;;5094728;28;20036;-71
2021/07/06 05:39:19;;;;;;;1.75;1.65;;;19.70;99.90;;;;;;5093665;28;20556;-71
2021/07/06 05:41:44;;;;;;;2.72;1.92;;;19.70;99.90;;;;;;5093985;28;20122;-71
2021/07/06 05:44:12;;;;;;;6.07;1.92;;;19.60;99.90;;;;;;5094569;28;20042;-71
2021/07/06 05:46:37;;;;;;;6.50;1.77;;;19.70;99.90;;;;;;5094233;28;20039;-71
2021/07/06 05:49:03;;;;;;;2.90;1.63;;;19.60;99.90;;;;;;5093848;28;20396;-71
2021/07/06 05:51:29;;;;;;;3.75;1.60;;;19.60;99.90;;;;;;5093908;28;20485;-71
2021/07/06 05:53:55;;;;;;;2.30;1.65;;;19.50;99.90;;;;;;5094004;28;20077;-71
2021/07/06 05:56:20;;;;;;;3.42;1.90;;;19.40;99.90;;;;;;5093786;28;20487;-71
2021/07/06 05:58:47;;;;;;;3.17;1.80;;;19.40;99.90;;;;;;5093290;28;20040;-71
2021/07/06 06:01:13;;;;;;;2.25;1.50;;;19.30;99.90;;;;;;5093731;28;20134;-70
2021/07/06 06:03:39;;;;;;;2.35;1.67;;;19.30;99.90;;;;;;5094112;28;20089;-71
2021/07/06 06:06:05;;;;;;;2.55;1.90;;;19.30;99.90;;;;;;5093850;28;20044;-71
2021/07/06 06:08:30;;;;;;;2.10;1.90;;;19.20;99.90;;;;;;5092111;28;20396;-72
2021/07/06 06:10:56;;;;;;;3.17;2.00;;;19.10;99.90;;;;;;5093903;28;20043;-72
2021/07/06 06:13:22;;;;;;;2.08;1.70;;;19.10;99.90;;;;;;5093642;28;20036;-71
2021/07/06 06:15:47;;;;;;;2.95;1.75;;;19.10;99.90;;;;;;5093608;28;20036;-72
2021/07/06 06:18:13;;;;;;;3.65;2.05;;;19.10;99.90;;;;;;5093447;28;20059;-72
2021/07/06 06:20:39;;;;;;;5.93;2.70;;;19.00;99.90;;;;;;5093633;28;20055;-72
2021/07/06 06:23:05;;;;;;;7.15;2.83;;;18.90;99.90;;;;;;5094090;28;20117;-72
2021/07/06 06:25:32;;;;;;;4.45;3.28;;;18.80;99.90;;;;;;5093668;28;20094;-72
2021/07/06 06:27:59;;;;;;;5.00;2.47;;;18.80;99.90;;;;;;5093251;28;20553;-72
2021/07/06 06:30:24;;;;;;;3.08;2.08;;;18.70;99.90;;;;;;5092941;28;20040;-72
2021/07/06 06:32:51;;;;;;;3.30;2.60;;;18.70;99.90;;;;;;5093749;28;20085;-72
2021/07/06 06:35:17;;;;;;;6.30;2.40;;;18.70;99.90;;;;;;5093195;28;20119;-72
2021/07/06 06:37:43;;;;;;;3.97;2.35;;;18.70;99.90;;;;;;5093187;28;20064;-72
2021/07/06 06:40:10;;;;;;;3.65;2.10;;;18.70;99.90;;;;;;5092809;28;20040;-72
2021/07/06 06:42:37;;;;;;;4.10;2.35;;;18.70;99.90;;;;;;5093246;28;20060;-72
2021/07/06 06:45:05;;;;;;;4.55;2.42;;;18.70;99.90;;;;;;5093238;28;20044;-72
2021/07/06 06:47:31;;;;;;;9.10;2.65;;;18.70;99.90;;;;;;5093123;28;20557;-72
2021/07/06 06:49:56;;;;;;;5.70;2.00;;;18.70;99.90;;;;;;5092591;28;20036;-72
2021/07/06 06:52:23;;;;;;;2.78;2.08;;;18.70;99.90;;;;;;5093854;28;20381;-72
2021/07/06 06:54:48;;;;;;;6.35;2.53;;;18.70;99.90;;;;;;5093658;28;20089;-72
2021/07/06 06:57:14;;;;;;;2.45;2.17;;;18.70;99.90;;;;;;5093686;28;20036;-72
2021/07/06 06:59:40;;;;;;;2.90;1.98;;;18.70;99.90;;;;;;5092976;28;20036;-73
2021/07/06 07:02:19;;;;;;;4.93;2.50;;;18.70;99.90;;;;;;5093911;28;20051;-72
2021/07/06 07:04:48;;;;;;;3.67;2.60;;;18.70;99.90;;;;;;5093058;28;20071;-72
2021/07/06 07:07:14;;;;;;;3.00;2.35;;;18.70;99.90;;;;;;5092943;28;20121;-71
2021/07/06 07:09:41;;;;;;;3.63;2.55;;;18.70;99.90;;;;;;5092772;28;20484;-72
2021/07/06 07:12:07;;;;;;;3.55;2.53;;;18.80;99.90;;;;;;5092790;28;20123;-72
2021/07/06 07:14:33;;;;;;;2.97;2.55;;;18.80;99.90;;;;;;5093317;28;20114;-72
2021/07/06 07:16:58;;;;;;;2.60;1.75;;;18.80;99.90;;;;;;5093335;28;20033;-72
2021/07/06 07:19:24;;;;;;;4.10;2.55;;;18.80;99.90;;;;;;5092916;28;20036;-71
2021/07/06 07:21:50;;;;;;;4.30;2.50;;;18.80;99.90;;;;;;5092938;28;20051;-72
2021/07/06 07:24:16;;;;;;;3.88;2.83;;;18.80;99.90;;;;;;5093380;28;20036;-72
2021/07/06 07:26:42;;;;;;;2.45;2.22;;;18.80;99.90;;;;;;5093017;28;20392;-72
2021/07/06 07:29:07;;;;;;;3.97;2.40;;;18.90;99.90;;;;;;5095564;28;20032;-72
2021/07/06 07:31:33;;;;;;;3.15;2.05;;;18.90;99.90;;;;;;5096416;28;20036;-71
2021/07/06 07:33:59;;;;;;;2.92;2.40;;;19.00;99.90;;;;;;5097117;28;20036;-73
2021/07/06 07:36:26;;;;;;;2.60;2.25;;;19.00;99.90;;;;;;5095159;28;20449;-72
2021/07/06 07:38:53;;;;;;;3.92;2.40;;;19.10;99.90;;;;;;5096358;28;20542;-73
2021/07/06 07:41:18;;;;;;;6.55;2.38;;;19.10;99.90;;;;;;5096558;28;20042;-72
2021/07/06 07:43:44;;;;;;;5.70;2.35;;;19.20;99.90;;;;;;5096213;28;20035;-72
2021/07/06 07:46:10;;;;;;;3.92;2.20;;;19.30;99.90;;;;;;5096177;28;20142;-73
2021/07/06 07:48:35;;;;;;;6.70;2.40;;;19.30;99.90;;;;;;5096563;28;20036;-73
2021/07/06 07:51:01;;;;;;;2.70;2.00;;;19.30;99.90;;;;;;5096268;28;20046;-73
2021/07/06 07:53:27;;;;;;;6.60;2.78;;;19.40;99.90;;;;;;5096153;28;20388;-72
2021/07/06 07:55:53;;;;;;;2.78;2.13;;;19.40;99.90;;;;;;5095948;28;20040;-72
2021/07/06 07:58:19;;;;;;;4.05;2.30;;;19.40;99.90;;;;;;5096438;28;20047;-72
2021/07/06 08:00:45;;;;;;;4.07;1.98;;;19.50;99.90;;;;;;5095396;28;20041;-72
2021/07/06 08:03:11;;;;;;;2.65;1.67;;;19.60;99.90;;;;;;5096334;28;20047;-72
2021/07/06 08:05:36;;;;;;;4.68;2.20;;;19.60;99.90;;;;;;5095937;28;20032;-72
2021/07/06 08:08:03;;;;;;;3.60;1.90;;;19.70;99.90;;;;;;5095763;28;20088;-72
2021/07/06 08:10:29;;;;;;;3.05;2.10;;;19.70;99.90;;;;;;5095508;28;20089;-73
2021/07/06 08:12:54;;;;;;;3.40;2.10;;;19.80;99.90;;;;;;5095525;28;20483;-73
2021/07/06 08:15:20;;;;;;;3.22;1.85;;;19.80;99.90;;;;;;5096310;28;20173;-73
2021/07/06 08:17:46;;;;;;;4.78;1.85;;;19.80;99.90;;;;;;5095654;28;20391;-73
2021/07/06 08:20:13;;;;;;;4.15;2.50;;;19.90;99.90;;;;;;5095100;28;20118;-73
2021/07/06 08:22:39;;;;;;;3.10;2.00;;;19.90;99.90;;;;;;5095547;28;20040;-72
2021/07/06 08:25:05;;;;;;;6.95;2.05;;;19.90;99.90;;;;;;5096090;28;20097;-73
2021/07/06 08:27:31;;;;;;;4.97;1.73;;;20.00;99.90;;;;;;5095717;28;20042;-73
2021/07/06 08:29:56;;;;;;;4.78;1.95;;;20.00;99.90;;;;;;5095067;28;20407;-73
2021/07/06 08:32:22;;;;;;;3.15;1.90;;;20.10;99.90;;;;;;5095258;28;20467;-73
2021/07/06 08:34:47;;;;;;;4.47;2.33;;;20.10;99.90;;;;;;5094149;28;20036;-73
2021/07/06 08:37:13;;;;;;;3.33;2.35;;;20.10;99.90;;;;;;5095334;28;20047;-73
2021/07/06 08:39:39;;;;;;;6.35;1.85;;;20.20;99.90;;;;;;5094713;28;20450;-73
2021/07/06 08:42:06;;;;;;;3.90;2.08;;;20.20;99.90;;;;;;5095211;28;20484;-73
2021/07/06 08:44:31;;;;;;;4.40;1.80;;;20.10;99.90;;;;;;5095635;28;20036;-73
2021/07/06 08:47:00;;;;;;;4.22;2.05;;;20.20;99.90;;;;;;5095373;28;20040;-72
2021/07/06 08:49:27;;;;;;;2.13;1.58;;;20.20;99.90;;;;;;5094603;28;20115;-73
2021/07/06 08:51:52;;;;;;;4.07;1.50;;;20.30;99.90;;;;;;5095192;28;20040;-73
2021/07/06 08:54:20;;;;;;;5.00;2.17;;;20.40;99.90;;;;;;5095044;28;20044;-73
2021/07/06 08:56:47;;;;;;;3.15;2.05;;;20.50;99.90;;;;;;5095904;28;20115;-73
2021/07/06 08:59:13;;;;;;;4.57;2.00;;;20.70;99.90;;;;;;5094370;28;20043;-74
2021/07/06 09:01:39;;;;;;;3.33;1.90;;;20.80;99.90;;;;;;5094779;28;20070;-73
2021/07/06 09:04:05;;;;;;;7.85;2.28;;;20.90;99.90;;;;;;5093647;28;20038;-72
2021/07/06 09:06:54;;;;;;;2.58;1.70;;;21.00;99.90;;;;;;5094749;28;20064;-72
2021/07/06 09:09:22;;;;;;;7.30;2.10;;;21.10;99.90;;;;;;5094693;28;20404;-72
2021/07/06 09:11:53;;;;;;;5.15;1.50;;;21.20;99.90;;;;;;5094269;28;20433;-73
2021/07/06 09:14:27;;;;;;;3.38;1.67;;;21.20;99.90;;;;;;5094636;28;20488;-73
2021/07/06 09:17:07;;;;;;;2.80;1.80;;;21.30;99.90;;;;;;5094736;28;20102;-73
2021/07/06 09:19:33;;;;;;;1.85;1.33;;;21.20;99.90;;;;;;5094058;28;20566;-73
2021/07/06 09:22:39;;;;;;;3.25;1.38;;;21.30;99.90;;;;;;5095215;28;20071;-73
2021/07/06 09:25:09;;;;;;;3.80;1.30;;;21.30;99.90;;;;;;5089548;28;20520;-73
2021/07/06 09:27:40;;;;;;;4.68;1.58;;;21.40;99.90;;;;;;5094158;28;20069;-73
2021/07/06 09:30:13;;;;;;;5.38;1.42;;;21.70;99.90;;;;;;5092708;28;20400;-73
2021/07/06 09:32:43;;;;;;;;;;;22.10;99.90;;;;;;5095236;28;20036;-73
2021/07/06 09:35:26;;;;;;;4.55;1.15;;;22.40;99.90;;;;;;5094500;28;19943;-73
2021/07/06 09:38:02;;;;;;;4.43;1.40;;;22.80;99.90;;;;;;5096757;28;20037;-73
2021/07/06 09:40:36;;;;;;;4.10;1.30;;;23.10;99.90;;;;;;5113327;28;20039;-73
2021/07/06 09:43:18;;;;;;;6.97;1.95;;;23.30;99.90;;;;;;5114346;28;20049;-73
2021/07/06 09:45:54;;;;;;;5.32;0.98;;;23.70;99.90;;;;;;5112807;28;20035;-74
2021/07/06 09:48:20;;;;;;;2.60;1.02;;;23.80;99.90;;;;;;5094001;28;20044;-73
2021/07/06 09:50:45;;;;;;;1.88;1.10;;;23.80;99.90;;;;;;5093136;28;20480;-73
2021/07/06 09:53:24;;;;;;;1.20;0.73;;;23.80;99.90;;;;;;5094190;28;20456;-72
2021/07/06 09:55:50;;;;;;;1.83;0.98;;;23.70;99.70;;;;;;5093738;28;20434;-73
2021/07/06 09:58:16;;;;;;;3.78;1.17;;;23.80;99.90;;;;;;5093696;28;20039;-72
2021/07/06 10:00:42;;;;;;;3.97;1.17;;;24.00;99.90;;;;;;5093187;28;20089;-72
2021/07/06 10:03:08;;;;;;;3.55;1.20;;;24.00;99.50;;;;;;5094064;28;20465;-72
2021/07/06 10:05:34;;;;;;;2.50;1.02;;;24.10;98.60;;;;;;5093777;28;20484;-72
2021/07/06 10:08:01;;;;;;;2.72;0.88;;;24.20;97.80;;;;;;5093406;28;20036;-72
2021/07/06 10:10:27;;;;;;;3.08;1.10;;;24.00;97.40;;;;;;5093308;28;20479;-72
2021/07/06 10:12:53;;;;;;;2.67;0.80;;;23.70;96.60;;;;;;5093714;28;20091;-72
2021/07/06 10:15:22;;;;;;;1.20;0.80;;;23.80;97.30;;;;;;5093576;28;20036;-72
2021/07/06 10:17:50;;;;;;;6.03;1.15;;;23.70;96.60;;;;;;5093341;28;20040;-72
2021/07/06 10:20:20;;;;;;;1.50;0.80;;;23.60;97.80;;;;;;5093223;28;20488;-72
2021/07/06 10:22:47;;;;;;;3.33;0.95;;;23.80;97.20;;;;;;5093316;28;20043;-73
2021/07/06 10:25:13;;;;;;;1.75;0.90;;;23.90;97.00;;;;;;5092541;28;20036;-72
2021/07/06 10:27:48;;;;;;;2.13;0.85;;;23.80;96.80;;;;;;5092602;28;20051;-72
2021/07/06 10:30:17;;;;;;;3.90;0.90;;;23.90;97.90;;;;;;5092206;28;20123;-73
2021/07/06 10:32:54;;;;;;;2.88;1.08;;;23.80;97.90;;;;;;5092500;28;20047;-73
2021/07/06 10:35:41;;;;;;;3.17;0.90;;;23.60;97.50;;;;;;5092432;28;20123;-73
2021/07/06 10:38:29;;;;;;;2.13;0.95;;;23.50;96.50;;;;;;5093237;28;20036;-73
2021/07/06 10:40:59;;;;;;;2.00;0.93;;;23.60;97.20;;;;;;5093325;28;20044;-73
2021/07/06 10:43:42;;;;;;;2.45;0.77;;;23.60;96.90;;;;;;5094147;28;20115;-72
2021/07/06 10:46:20;;;;;;;2.83;0.95;;;23.70;98.00;;;;;;5093745;28;20082;-72
2021/07/06 10:48:46;;;;;;;2.20;0.90;;;23.70;97.40;;;;;;5092887;28;20109;-74
2021/07/06 10:51:36;;;;;;;1.65;1.10;;;23.70;97.90;;;;;;5093246;28;20071;-72
2021/07/06 10:54:20;;;;;;;2.30;0.90;;;23.60;95.70;;;;;;5093133;28;20047;-72
2021/07/06 10:57:04;;;;;;;3.55;0.70;;;23.90;96.20;;;;;;5093402;28;20048;-72
2021/07/06 10:59:30;;;;;;;2.20;0.80;;;24.00;97.10;;;;;;5092789;28;20119;-72
2021/07/06 11:01:59;;;;;;;5.07;0.88;;;24.10;96.30;;;;;;5093012;28;20071;-73
2021/07/06 11:04:37;;;;;;;5.65;1.05;;;24.10;96.90;;;;;;5097123;28;20032;-73
2021/07/06 11:07:07;;;;;;;2.17;0.93;;;24.10;96.60;;;;;;5097132;28;20043;-72
2021/07/06 11:09:34;;;;;;;2.63;1.10;;;23.90;94.90;;;;;;5096749;28;20545;-71
2021/07/06 11:12:24;;;;;;;4.25;0.90;;;23.70;94.60;;;;;;5097108;28;20039;-72
2021/07/06 11:15:20;;;;;;;3.15;0.82;;;23.30;95.90;;;;;;5096910;28;20032;-72
2021/07/06 11:17:48;;;;;;;3.05;0.73;;;23.10;96.70;;;;;;5096193;28;20461;-73
2021/07/06 11:20:28;;;;;;;6.47;1.60;;;22.90;97.90;;;;;;5096589;28;20040;-72
2021/07/06 11:22:56;;;;;;;4.78;0.80;;;22.60;98.10;;;;;;5097671;28;20484;-72
2021/07/06 11:25:42;;;;;;;3.03;0.60;;;22.50;98.00;;;;;;5097329;28;20111;-72
2021/07/06 11:28:13;;;;;;;4.18;1.10;;;22.20;98.80;;;;;;5097230;28;20554;-71
2021/07/06 11:30:52;;;;;;;2.13;1.02;;;22.10;99.10;;;;;;5096406;28;20115;-72
2021/07/06 11:33:22;;;;;;;1.65;1.13;;;22.00;99.10;;;;;;5096948;28;20032;-71
2021/07/06 11:35:55;;;;;;;1.98;0.85;;;21.80;99.70;;;;;;5097174;28;20107;-72
2021/07/06 11:38:30;;;;;;;4.78;1.20;;;21.80;99.40;;;;;;5096407;28;20043;-73
2021/07/06 11:41:01;;;;;;;1.90;1.00;;;22.00;99.70;;;;;;5095128;28;20404;-72
2021/07/06 11:43:30;;;;;;;5.18;1.02;;;22.20;99.20;;;;;;5096028;28;20044;-72
2021/07/06 11:46:01;;;;;;;4.95;1.20;;;22.50;99.80;;;;;;5096180;28;20093;-72
2021/07/06 11:48:34;;;;;;;3.17;0.90;;;22.80;98.10;;;;;;5095928;28;20032;-73
2021/07/06 11:51:03;;;;;;;3.33;1.00;;;23.00;98.20;;;;;;5096322;28;20039;-71
2021/07/06 11:53:35;;;;;;;3.30;1.33;;;23.20;99.40;;;;;;5096507;28;20035;-71
2021/07/06 11:56:02;;;;;;;5.53;0.88;;;23.30;98.70;;;;;;5096066;28;20085;-72
2021/07/06 11:58:31;;;;;;;5.78;0.77;;;23.50;98.30;;;;;;5095204;28;20396;-72
2021/07/06 12:01:01;;;;;;;4.15;0.93;;;23.40;95.30;;;;;;5095906;28;20040;-72
2021/07/06 12:03:37;;;;;;;3.75;0.90;;;23.50;95.50;;;;;;5096201;28;20043;-72
2021/07/06 12:06:09;;;;;;;6.93;0.80;;;23.60;93.90;;;;;;5096188;28;20560;-71
2021/07/06 12:08:36;;;;;;;3.92;0.95;;;23.60;95.20;;;;;;5095338;28;20043;-72
2021/07/06 12:11:01;;;;;;;3.47;1.02;;;23.50;94.10;;;;;;5096362;28;20539;-72
2021/07/06 12:13:30;;;;;;;2.25;0.63;;;23.40;93.80;;;;;;5095380;28;20124;-71
2021/07/06 12:16:03;;;;;;;2.38;0.60;;;23.40;94.60;;;;;;5095972;28;20444;-71
2021/07/06 12:18:33;;;;;;;7.90;1.42;;;23.50;95.80;;;;;;5095943;28;20040;-73
2021/07/06 12:21:03;;;;;;;2.97;0.93;;;23.60;96.60;;;;;;5095597;28;20451;-72
2021/07/06 12:23:29;;;;;;;3.88;0.98;;;23.70;94.90;;;;;;5096652;28;20527;-72
2021/07/06 12:25:56;;;;;;;4.15;0.80;;;23.60;93.70;;;;;;5095523;28;20042;-72
2021/07/06 12:28:23;;;;;;;2.05;0.70;;;23.60;93.60;;;;;;5095396;28;20036;-72
2021/07/06 12:31:12;;;;;;;3.78;0.90;;;23.70;91.20;;;;;;5095189;28;20071;-72
2021/07/06 12:33:37;;;;;;;4.80;0.80;;;23.60;93.10;;;;;;5095474;28;20043;-72
2021/07/06 12:36:03;;;;;;;5.22;1.02;;;23.60;93.50;;;;;;5095354;28;20108;-72
2021/07/06 12:38:29;;;;;;;5.15;0.80;;;23.60;92.00;;;;;;5093963;28;20040;-71
2021/07/06 12:40:54;;;;;;;2.30;0.80;;;23.40;92.90;;;;;;5094960;28;20447;-72
2021/07/06 12:43:23;;;;;;;5.95;0.55;;;23.20;92.10;;;;;;5095658;28;20040;-71
2021/07/06 12:45:49;;;;;;;6.53;1.15;;;22.90;91.60;;;;;;5095057;28;20093;-71
2021/07/06 12:48:27;;;;;;;1.88;0.85;;;22.80;93.80;;;;;;5095641;28;20101;-71